sensor_id;sensor_type;location;lat;lon;timestamp;temperature;humidity
5711;DHT22;61291;52.524;13.422;2023-03-18T00:01:46;9.90;92.90
5711;DHT22;61291;52.524;13.422;2023-03-18T00:04:11;9.90;92.90
5711;DHT22;61291;52.524;13.422;2023-03-18T00:06:37;9.90;92.90
5711;DHT22;61291;52.524;13.422;2023-03-18T00:09:03;9.90;92.90
5711;DHT22;61291;52.524;13.422;2023-03-18T00:11:29;9.90;92.90
5711;DHT22;61291;52.524;13.422;2023-03-18T00:13:54;9.90;92.80
5711;DHT22;61291;52.524;13.422;2023-03-18T00:16:20;9.90;92.80
5711;DHT22;61291;52.524;13.422;2023-03-18T00:18:46;9.90;92.80
5711;DHT22;61291;52.524;13.422;2023-03-18T00:21:12;9.90;92.80
5711;DHT22;61291;52.524;13.422;2023-03-18T00:23:37;9.90;92.70
5711;DHT22;61291;52.524;13.422;2023-03-18T00:26:04;9.90;92.80
5711;DHT22;61291;52.524;13.422;2023-03-18T00:28:30;9.90;92.80
5711;DHT22;61291;52.524;13.422;2023-03-18T00:31:02;9.90;92.80
5711;DHT22;61291;52.524;13.422;2023-03-18T00:33:28;9.80;92.70
5711;DHT22;61291;52.524;13.422;2023-03-18T00:35:53;9.80;92.70
5711;DHT22;61291;52.524;13.422;2023-03-18T00:38:19;9.70;92.70
5711;DHT22;61291;52.524;13.422;2023-03-18T00:40:50;9.70;92.70
5711;DHT22;61291;52.524;13.422;2023-03-18T00:43:26;9.70;92.70
5711;DHT22;61291;52.524;13.422;2023-03-18T00:45:54;9.60;92.60
5711;DHT22;61291;52.524;13.422;2023-03-18T00:48:21;9.50;92.60
5711;DHT22;61291;52.524;13.422;2023-03-18T00:50:46;9.40;92.60
5711;DHT22;61291;52.524;13.422;2023-03-18T00:53:12;9.40;92.70
5711;DHT22;61291;52.524;13.422;2023-03-18T00:55:39;9.40;92.70
5711;DHT22;61291;52.524;13.422;2023-03-18T00:58:05;9.30;92.60
5711;DHT22;61291;52.524;13.422;2023-03-18T01:00:30;9.30;92.70
5711;DHT22;61291;52.524;13.422;2023-03-18T01:02:56;9.20;92.70
5711;DHT22;61291;52.524;13.422;2023-03-18T01:05:21;9.10;92.70
5711;DHT22;61291;52.524;13.422;2023-03-18T01:07:48;9.00;92.70
5711;DHT22;61291;52.524;13.422;2023-03-18T01:10:14;8.90;92.70
5711;DHT22;61291;52.524;13.422;2023-03-18T01:12:41;9.00;93.20
5711;DHT22;61291;52.524;13.422;2023-03-18T01:15:09;9.00;93.10
5711;DHT22;61291;52.524;13.422;2023-03-18T01:17:37;9.00;93.00
5711;DHT22;61291;52.524;13.422;2023-03-18T01:20:03;9.00;92.90
5711;DHT22;61291;52.524;13.422;2023-03-18T01:22:28;9.00;92.90
5711;DHT22;61291;52.524;13.422;2023-03-18T01:24:54;8.90;92.80
5711;DHT22;61291;52.524;13.422;2023-03-18T01:27:21;8.90;92.80
5711;DHT22;61291;52.524;13.422;2023-03-18T01:29:47;8.90;92.90
5711;DHT22;61291;52.524;13.422;2023-03-18T01:32:13;8.90;92.90
5711;DHT22;61291;52.524;13.422;2023-03-18T01:34:38;8.90;92.90
5711;DHT22;61291;52.524;13.422;2023-03-18T01:37:06;8.80;92.80
5711;DHT22;61291;52.524;13.422;2023-03-18T01:39:31;8.90;92.90
5711;DHT22;61291;52.524;13.422;2023-03-18T01:41:59;8.90;92.90
5711;DHT22;61291;52.524;13.422;2023-03-18T01:44:25;8.90;92.90
5711;DHT22;61291;52.524;13.422;2023-03-18T01:46:52;8.90;92.90
5711;DHT22;61291;52.524;13.422;2023-03-18T01:49:25;8.90;92.90
5711;DHT22;61291;52.524;13.422;2023-03-18T01:51:57;8.90;93.00
5711;DHT22;61291;52.524;13.422;2023-03-18T01:54:25;8.90;92.90
5711;DHT22;61291;52.524;13.422;2023-03-18T01:56:52;9.00;93.00
5711;DHT22;61291;52.524;13.422;2023-03-18T01:59:20;9.00;92.90
5711;DHT22;61291;52.524;13.422;2023-03-18T02:01:57;9.00;92.90
5711;DHT22;61291;52.524;13.422;2023-03-18T02:04:28;9.10;92.90
5711;DHT22;61291;52.524;13.422;2023-03-18T02:06:57;9.10;92.80
5711;DHT22;61291;52.524;13.422;2023-03-18T02:09:22;9.10;92.80
5711;DHT22;61291;52.524;13.422;2023-03-18T02:11:48;9.10;92.80
5711;DHT22;61291;52.524;13.422;2023-03-18T02:14:15;9.10;92.80
5711;DHT22;61291;52.524;13.422;2023-03-18T02:17:03;9.10;92.90
5711;DHT22;61291;52.524;13.422;2023-03-18T02:19:43;9.10;92.80
5711;DHT22;61291;52.524;13.422;2023-03-18T02:22:31;9.10;92.80
5711;DHT22;61291;52.524;13.422;2023-03-18T02:25:20;9.10;92.90
5711;DHT22;61291;52.524;13.422;2023-03-18T02:27:49;9.00;92.80
5711;DHT22;61291;52.524;13.422;2023-03-18T02:30:26;9.00;92.80
5711;DHT22;61291;52.524;13.422;2023-03-18T02:32:54;9.10;92.80
5711;DHT22;61291;52.524;13.422;2023-03-18T02:35:21;9.10;92.90
5711;DHT22;61291;52.524;13.422;2023-03-18T02:37:47;9.00;92.90
5711;DHT22;61291;52.524;13.422;2023-03-18T02:40:28;9.00;92.90
5711;DHT22;61291;52.524;13.422;2023-03-18T02:42:54;9.00;92.90
5711;DHT22;61291;52.524;13.422;2023-03-18T02:45:34;9.00;92.90
5711;DHT22;61291;52.524;13.422;2023-03-18T02:48:07;9.00;92.90
5711;DHT22;61291;52.524;13.422;2023-03-18T02:50:34;9.00;92.90
5711;DHT22;61291;52.524;13.422;2023-03-18T02:53:01;8.90;92.90
5711;DHT22;61291;52.524;13.422;2023-03-18T02:55:28;8.90;92.90
5711;DHT22;61291;52.524;13.422;2023-03-18T02:57:54;8.90;92.90
5711;DHT22;61291;52.524;13.422;2023-03-18T03:00:20;8.90;92.90
5711;DHT22;61291;52.524;13.422;2023-03-18T03:02:46;8.80;92.90
5711;DHT22;61291;52.524;13.422;2023-03-18T03:05:11;8.80;92.90
5711;DHT22;61291;52.524;13.422;2023-03-18T03:07:37;8.90;92.90
5711;DHT22;61291;52.524;13.422;2023-03-18T03:10:04;8.80;92.90
5711;DHT22;61291;52.524;13.422;2023-03-18T03:12:31;8.80;92.90
5711;DHT22;61291;52.524;13.422;2023-03-18T03:14:56;8.80;92.90
5711;DHT22;61291;52.524;13.422;2023-03-18T03:17:22;8.70;92.90
5711;DHT22;61291;52.524;13.422;2023-03-18T03:19:48;8.60;92.90
5711;DHT22;61291;52.524;13.422;2023-03-18T03:22:14;8.60;93.00
5711;DHT22;61291;52.524;13.422;2023-03-18T03:24:42;8.60;93.00
5711;DHT22;61291;52.524;13.422;2023-03-18T03:27:07;8.50;93.00
5711;DHT22;61291;52.524;13.422;2023-03-18T03:29:33;8.50;93.00
5711;DHT22;61291;52.524;13.422;2023-03-18T03:31:58;8.50;93.00
5711;DHT22;61291;52.524;13.422;2023-03-18T03:34:24;8.50;93.10
5711;DHT22;61291;52.524;13.422;2023-03-18T03:36:50;8.50;93.00
5711;DHT22;61291;52.524;13.422;2023-03-18T03:39:15;8.50;93.10
5711;DHT22;61291;52.524;13.422;2023-03-18T03:41:41;8.60;93.40
5711;DHT22;61291;52.524;13.422;2023-03-18T03:44:06;8.60;93.30
5711;DHT22;61291;52.524;13.422;2023-03-18T03:46:32;8.70;93.30
5711;DHT22;61291;52.524;13.422;2023-03-18T03:48:57;8.60;93.20
5711;DHT22;61291;52.524;13.422;2023-03-18T03:51:23;8.60;93.10
5711;DHT22;61291;52.524;13.422;2023-03-18T03:53:48;8.60;93.10
5711;DHT22;61291;52.524;13.422;2023-03-18T03:56:15;8.60;93.10
5711;DHT22;61291;52.524;13.422;2023-03-18T03:58:41;8.60;93.10
5711;DHT22;61291;52.524;13.422;2023-03-18T04:01:07;8.60;93.10
5711;DHT22;61291;52.524;13.422;2023-03-18T04:03:32;8.60;93.10
5711;DHT22;61291;52.524;13.422;2023-03-18T04:05:58;8.50;93.10
5711;DHT22;61291;52.524;13.422;2023-03-18T04:08:23;8.50;93.10
5711;DHT22;61291;52.524;13.422;2023-03-18T04:10:49;8.50;93.20
5711;DHT22;61291;52.524;13.422;2023-03-18T04:13:14;8.40;93.20
5711;DHT22;61291;52.524;13.422;2023-03-18T04:15:40;8.40;93.20
5711;DHT22;61291;52.524;13.422;2023-03-18T04:18:06;8.50;93.70
5711;DHT22;61291;52.524;13.422;2023-03-18T04:20:33;8.50;93.60
5711;DHT22;61291;52.524;13.422;2023-03-18T04:22:59;8.40;93.50
5711;DHT22;61291;52.524;13.422;2023-03-18T04:25:25;8.30;93.40
5711;DHT22;61291;52.524;13.422;2023-03-18T04:27:50;8.40;93.50
5711;DHT22;61291;52.524;13.422;2023-03-18T04:30:19;8.40;93.50
5711;DHT22;61291;52.524;13.422;2023-03-18T04:32:48;8.40;93.40
5711;DHT22;61291;52.524;13.422;2023-03-18T04:35:14;8.40;93.40
5711;DHT22;61291;52.524;13.422;2023-03-18T04:37:40;8.30;93.40
5711;DHT22;61291;52.524;13.422;2023-03-18T04:40:06;8.30;93.40
5711;DHT22;61291;52.524;13.422;2023-03-18T04:42:32;8.20;93.40
5711;DHT22;61291;52.524;13.422;2023-03-18T04:44:58;8.20;93.40
5711;DHT22;61291;52.524;13.422;2023-03-18T04:47:23;8.10;93.40
5711;DHT22;61291;52.524;13.422;2023-03-18T04:49:49;8.10;93.50
5711;DHT22;61291;52.524;13.422;2023-03-18T04:52:15;8.10;93.50
5711;DHT22;61291;52.524;13.422;2023-03-18T04:54:40;8.10;93.50
5711;DHT22;61291;52.524;13.422;2023-03-18T04:57:07;8.00;93.60
5711;DHT22;61291;52.524;13.422;2023-03-18T04:59:33;7.90;93.60
5711;DHT22;61291;52.524;13.422;2023-03-18T05:01:58;7.80;93.60
5711;DHT22;61291;52.524;13.422;2023-03-18T05:04:24;7.80;93.70
5711;DHT22;61291;52.524;13.422;2023-03-18T05:06:50;7.80;93.80
5711;DHT22;61291;52.524;13.422;2023-03-18T05:09:16;7.70;93.80
5711;DHT22;61291;52.524;13.422;2023-03-18T05:11:44;7.60;93.80
5711;DHT22;61291;52.524;13.422;2023-03-18T05:14:09;7.60;93.90
5711;DHT22;61291;52.524;13.422;2023-03-18T05:16:35;7.50;94.00
5711;DHT22;61291;52.524;13.422;2023-03-18T05:19:01;7.50;94.10
5711;DHT22;61291;52.524;13.422;2023-03-18T05:21:27;7.40;94.00
5711;DHT22;61291;52.524;13.422;2023-03-18T05:23:52;7.30;94.20
5711;DHT22;61291;52.524;13.422;2023-03-18T05:26:18;7.40;94.30
5711;DHT22;61291;52.524;13.422;2023-03-18T05:28:43;7.40;94.30
5711;DHT22;61291;52.524;13.422;2023-03-18T05:31:09;7.40;94.30
5711;DHT22;61291;52.524;13.422;2023-03-18T05:33:34;7.30;94.40
5711;DHT22;61291;52.524;13.422;2023-03-18T05:36:01;7.30;94.50
5711;DHT22;61291;52.524;13.422;2023-03-18T05:38:26;7.30;94.60
5711;DHT22;61291;52.524;13.422;2023-03-18T05:40:52;7.30;94.70
5711;DHT22;61291;52.524;13.422;2023-03-18T05:43:17;7.20;94.70
5711;DHT22;61291;52.524;13.422;2023-03-18T05:45:43;7.30;94.80
5711;DHT22;61291;52.524;13.422;2023-03-18T05:48:08;7.30;94.90
5711;DHT22;61291;52.524;13.422;2023-03-18T05:50:40;7.40;95.30
5711;DHT22;61291;52.524;13.422;2023-03-18T05:53:07;7.50;95.30
5711;DHT22;61291;52.524;13.422;2023-03-18T05:55:34;7.70;95.30
5711;DHT22;61291;52.524;13.422;2023-03-18T05:58:00;7.80;95.20
5711;DHT22;61291;52.524;13.422;2023-03-18T06:00:27;7.80;95.10
5711;DHT22;61291;52.524;13.422;2023-03-18T06:02:55;7.90;95.10
5711;DHT22;61291;52.524;13.422;2023-03-18T06:05:21;8.00;95.10
5711;DHT22;61291;52.524;13.422;2023-03-18T06:07:47;8.00;95.10
5711;DHT22;61291;52.524;13.422;2023-03-18T06:10:13;8.10;95.10
5711;DHT22;61291;52.524;13.422;2023-03-18T06:12:39;8.20;95.10
5711;DHT22;61291;52.524;13.422;2023-03-18T06:15:07;8.20;95.10
5711;DHT22;61291;52.524;13.422;2023-03-18T06:17:33;8.30;95.10
5711;DHT22;61291;52.524;13.422;2023-03-18T06:19:59;8.30;95.10
5711;DHT22;61291;52.524;13.422;2023-03-18T06:22:25;8.40;95.10
5711;DHT22;61291;52.524;13.422;2023-03-18T06:24:51;8.50;95.10
5711;DHT22;61291;52.524;13.422;2023-03-18T06:27:18;8.70;95.10
5711;DHT22;61291;52.524;13.422;2023-03-18T06:29:43;8.70;95.00
5711;DHT22;61291;52.524;13.422;2023-03-18T06:32:09;8.70;95.00
5711;DHT22;61291;52.524;13.422;2023-03-18T06:34:35;8.70;94.90
5711;DHT22;61291;52.524;13.422;2023-03-18T06:37:01;8.70;95.00
5711;DHT22;61291;52.524;13.422;2023-03-18T06:39:27;8.70;94.90
5711;DHT22;61291;52.524;13.422;2023-03-18T06:41:53;8.80;94.90
5711;DHT22;61291;52.524;13.422;2023-03-18T06:44:20;8.80;94.90
5711;DHT22;61291;52.524;13.422;2023-03-18T06:46:45;8.80;94.90
5711;DHT22;61291;52.524;13.422;2023-03-18T06:49:11;8.90;94.90
5711;DHT22;61291;52.524;13.422;2023-03-18T06:51:37;9.00;95.00
5711;DHT22;61291;52.524;13.422;2023-03-18T06:54:03;9.00;95.00
5711;DHT22;61291;52.524;13.422;2023-03-18T06:56:30;9.00;94.90
5711;DHT22;61291;52.524;13.422;2023-03-18T06:58:58;9.10;94.90
5711;DHT22;61291;52.524;13.422;2023-03-18T07:01:23;9.20;95.00
5711;DHT22;61291;52.524;13.422;2023-03-18T07:03:49;9.30;95.00
5711;DHT22;61291;52.524;13.422;2023-03-18T07:06:16;9.40;95.00
5711;DHT22;61291;52.524;13.422;2023-03-18T07:08:43;9.70;95.10
5711;DHT22;61291;52.524;13.422;2023-03-18T07:11:09;9.90;95.00
5711;DHT22;61291;52.524;13.422;2023-03-18T07:13:35;10.10;94.50
5711;DHT22;61291;52.524;13.422;2023-03-18T07:16:00;10.30;94.50
5711;DHT22;61291;52.524;13.422;2023-03-18T07:18:26;10.50;94.40
5711;DHT22;61291;52.524;13.422;2023-03-18T07:20:52;10.70;94.40
5711;DHT22;61291;52.524;13.422;2023-03-18T07:23:17;10.80;94.10
5711;DHT22;61291;52.524;13.422;2023-03-18T07:25:43;11.10;93.80
5711;DHT22;61291;52.524;13.422;2023-03-18T07:28:09;11.30;94.00
5711;DHT22;61291;52.524;13.422;2023-03-18T07:30:34;11.60;94.00
5711;DHT22;61291;52.524;13.422;2023-03-18T07:33:00;11.80;94.00
5711;DHT22;61291;52.524;13.422;2023-03-18T07:35:25;11.90;93.90
5711;DHT22;61291;52.524;13.422;2023-03-18T07:37:52;11.80;93.70
5711;DHT22;61291;52.524;13.422;2023-03-18T07:40:17;11.80;93.70
5711;DHT22;61291;52.524;13.422;2023-03-18T07:42:43;11.70;93.70
5711;DHT22;61291;52.524;13.422;2023-03-18T07:45:09;11.80;93.70
5711;DHT22;61291;52.524;13.422;2023-03-18T07:47:41;11.90;93.70
5711;DHT22;61291;52.524;13.422;2023-03-18T07:50:10;12.00;93.70
5711;DHT22;61291;52.524;13.422;2023-03-18T07:52:36;12.20;93.70
5711;DHT22;61291;52.524;13.422;2023-03-18T07:55:02;12.40;93.80
5711;DHT22;61291;52.524;13.422;2023-03-18T07:57:28;12.60;93.70
5711;DHT22;61291;52.524;13.422;2023-03-18T07:59:54;12.80;93.70
5711;DHT22;61291;52.524;13.422;2023-03-18T08:02:19;13.00;93.70
5711;DHT22;61291;52.524;13.422;2023-03-18T08:04:46;13.20;93.60
5711;DHT22;61291;52.524;13.422;2023-03-18T08:07:11;13.40;93.60
5711;DHT22;61291;52.524;13.422;2023-03-18T08:09:37;13.60;93.60
5711;DHT22;61291;52.524;13.422;2023-03-18T08:12:03;13.80;93.60
5711;DHT22;61291;52.524;13.422;2023-03-18T08:14:28;14.00;93.60
5711;DHT22;61291;52.524;13.422;2023-03-18T08:16:54;14.20;93.10
5711;DHT22;61291;52.524;13.422;2023-03-18T08:19:19;14.30;93.20
5711;DHT22;61291;52.524;13.422;2023-03-18T08:21:46;14.50;93.30
5711;DHT22;61291;52.524;13.422;2023-03-18T08:24:12;14.70;93.20
5711;DHT22;61291;52.524;13.422;2023-03-18T08:26:37;14.90;93.10
5711;DHT22;61291;52.524;13.422;2023-03-18T08:29:03;15.10;93.10
5711;DHT22;61291;52.524;13.422;2023-03-18T08:31:28;15.10;93.10
5711;DHT22;61291;52.524;13.422;2023-03-18T08:33:56;15.20;93.10
5711;DHT22;61291;52.524;13.422;2023-03-18T08:36:22;15.30;93.00
5711;DHT22;61291;52.524;13.422;2023-03-18T08:38:49;15.10;92.80
5711;DHT22;61291;52.524;13.422;2023-03-18T08:41:15;15.10;92.80
5711;DHT22;61291;52.524;13.422;2023-03-18T08:43:41;15.20;92.90
5711;DHT22;61291;52.524;13.422;2023-03-18T08:46:07;15.30;93.00
5711;DHT22;61291;52.524;13.422;2023-03-18T08:48:33;15.70;93.00
5711;DHT22;61291;52.524;13.422;2023-03-18T08:51:02;16.00;93.10
5711;DHT22;61291;52.524;13.422;2023-03-18T08:53:27;16.30;93.10
5711;DHT22;61291;52.524;13.422;2023-03-18T08:55:53;16.50;93.10
5711;DHT22;61291;52.524;13.422;2023-03-18T08:58:18;16.80;93.00
5711;DHT22;61291;52.524;13.422;2023-03-18T09:00:44;17.10;93.10
5711;DHT22;61291;52.524;13.422;2023-03-18T09:03:09;17.20;92.90
5711;DHT22;61291;52.524;13.422;2023-03-18T09:05:35;17.20;92.80
5711;DHT22;61291;52.524;13.422;2023-03-18T09:08:02;17.20;92.60
5711;DHT22;61291;52.524;13.422;2023-03-18T09:10:28;17.20;92.60
5711;DHT22;61291;52.524;13.422;2023-03-18T09:12:54;17.40;92.70
5711;DHT22;61291;52.524;13.422;2023-03-18T09:15:19;17.70;92.70
5711;DHT22;61291;52.524;13.422;2023-03-18T09:17:45;17.80;92.50
5711;DHT22;61291;52.524;13.422;2023-03-18T09:20:15;17.80;92.50
5711;DHT22;61291;52.524;13.422;2023-03-18T09:22:42;17.80;92.40
5711;DHT22;61291;52.524;13.422;2023-03-18T09:25:08;17.60;92.30
5711;DHT22;61291;52.524;13.422;2023-03-18T09:27:35;17.50;92.30
5711;DHT22;61291;52.524;13.422;2023-03-18T09:30:00;17.30;92.30
5711;DHT22;61291;52.524;13.422;2023-03-18T09:32:26;17.20;92.30
5711;DHT22;61291;52.524;13.422;2023-03-18T09:34:52;17.20;92.30
5711;DHT22;61291;52.524;13.422;2023-03-18T09:37:18;17.20;92.40
5711;DHT22;61291;52.524;13.422;2023-03-18T09:39:44;17.10;92.40
5711;DHT22;61291;52.524;13.422;2023-03-18T09:44:59;17.20;92.50
5711;DHT22;61291;52.524;13.422;2023-03-18T09:47:46;17.10;92.70
5711;DHT22;61291;52.524;13.422;2023-03-18T09:53:05;17.10;92.40
5711;DHT22;61291;52.524;13.422;2023-03-18T09:58:16;17.10;92.60
5711;DHT22;61291;52.524;13.422;2023-03-18T10:00:44;17.20;92.70
5711;DHT22;61291;52.524;13.422;2023-03-18T10:03:31;17.40;92.80
5711;DHT22;61291;52.524;13.422;2023-03-18T10:06:15;17.50;92.80
5711;DHT22;61291;52.524;13.422;2023-03-18T10:08:45;17.70;92.90
5711;DHT22;61291;52.524;13.422;2023-03-18T10:11:21;17.80;92.90
5711;DHT22;61291;52.524;13.422;2023-03-18T10:13:56;18.00;93.00
5711;DHT22;61291;52.524;13.422;2023-03-18T10:16:28;18.10;92.90
5711;DHT22;61291;52.524;13.422;2023-03-18T10:18:55;18.20;92.80
5711;DHT22;61291;52.524;13.422;2023-03-18T10:21:48;18.10;92.90
5711;DHT22;61291;52.524;13.422;2023-03-18T10:27:02;18.60;93.00
5711;DHT22;61291;52.524;13.422;2023-03-18T10:29:57;18.70;92.80
5711;DHT22;61291;52.524;13.422;2023-03-18T10:32:37;19.00;92.90
5711;DHT22;61291;52.524;13.422;2023-03-18T10:35:23;19.20;92.80
5711;DHT22;61291;52.524;13.422;2023-03-18T10:38:03;19.20;92.60
5711;DHT22;61291;52.524;13.422;2023-03-18T10:40:34;19.30;92.70
5711;DHT22;61291;52.524;13.422;2023-03-18T10:43:02;19.40;92.70
5711;DHT22;61291;52.524;13.422;2023-03-18T10:45:30;19.40;92.70
5711;DHT22;61291;52.524;13.422;2023-03-18T10:48:05;19.50;92.70
5711;DHT22;61291;52.524;13.422;2023-03-18T10:50:55;19.30;92.50
5711;DHT22;61291;52.524;13.422;2023-03-18T10:53:38;19.30;92.70
5711;DHT22;61291;52.524;13.422;2023-03-18T10:56:09;19.30;92.60
5711;DHT22;61291;52.524;13.422;2023-03-18T10:58:37;19.20;92.70
5711;DHT22;61291;52.524;13.422;2023-03-18T11:01:06;19.10;92.80
5711;DHT22;61291;52.524;13.422;2023-03-18T11:03:34;19.10;93.00
5711;DHT22;61291;52.524;13.422;2023-03-18T11:06:02;19.00;93.10
5711;DHT22;61291;52.524;13.422;2023-03-18T11:08:35;19.10;93.10
5711;DHT22;61291;52.524;13.422;2023-03-18T11:11:29;19.10;93.30
5711;DHT22;61291;52.524;13.422;2023-03-18T11:13:58;19.10;93.20
5711;DHT22;61291;52.524;13.422;2023-03-18T11:16:30;19.30;93.40
5711;DHT22;61291;52.524;13.422;2023-03-18T11:18:57;19.70;93.60
5711;DHT22;61291;52.524;13.422;2023-03-18T11:21:25;20.20;93.60
5711;DHT22;61291;52.524;13.422;2023-03-18T11:24:00;20.70;93.60
5711;DHT22;61291;52.524;13.422;2023-03-18T11:26:55;21.20;93.60
5711;DHT22;61291;52.524;13.422;2023-03-18T11:29:33;21.60;93.40
5711;DHT22;61291;52.524;13.422;2023-03-18T11:32:00;21.90;93.20
5711;DHT22;61291;52.524;13.422;2023-03-18T11:34:28;22.30;92.70
5711;DHT22;61291;52.524;13.422;2023-03-18T11:37:03;22.40;92.80
5711;DHT22;61291;52.524;13.422;2023-03-18T11:39:32;22.40;92.80
5711;DHT22;61291;52.524;13.422;2023-03-18T11:41:59;22.20;92.70
5711;DHT22;61291;52.524;13.422;2023-03-18T11:44:30;22.00;92.70
5711;DHT22;61291;52.524;13.422;2023-03-18T11:47:04;22.00;92.60
5711;DHT22;61291;52.524;13.422;2023-03-18T11:49:31;21.90;92.70
5711;DHT22;61291;52.524;13.422;2023-03-18T11:57:37;21.80;93.10
5711;DHT22;61291;52.524;13.422;2023-03-18T12:00:22;21.80;92.90
5711;DHT22;61291;52.524;13.422;2023-03-18T12:03:05;21.80;92.90
5711;DHT22;61291;52.524;13.422;2023-03-18T12:05:41;21.70;93.00
5711;DHT22;61291;52.524;13.422;2023-03-18T12:08:40;21.70;93.00
5711;DHT22;61291;52.524;13.422;2023-03-18T12:17:22;20.70;93.10
5711;DHT22;61291;52.524;13.422;2023-03-18T12:20:02;20.50;93.50
5711;DHT22;61291;52.524;13.422;2023-03-18T12:22:42;20.30;93.50
5711;DHT22;61291;52.524;13.422;2023-03-18T12:27:51;20.20;94.10
5711;DHT22;61291;52.524;13.422;2023-03-18T12:30:33;20.00;94.10
5711;DHT22;61291;52.524;13.422;2023-03-18T12:41:23;20.00;94.60
5711;DHT22;61291;52.524;13.422;2023-03-18T12:46:38;19.90;94.50
5711;DHT22;61291;52.524;13.422;2023-03-18T12:49:20;19.80;94.60
5711;DHT22;61291;52.524;13.422;2023-03-18T12:52:10;19.70;94.80
5711;DHT22;61291;52.524;13.422;2023-03-18T12:54:43;19.80;94.90
5711;DHT22;61291;52.524;13.422;2023-03-18T12:57:24;19.80;95.00
5711;DHT22;61291;52.524;13.422;2023-03-18T12:59:55;19.80;95.20
5711;DHT22;61291;52.524;13.422;2023-03-18T13:02:44;19.70;95.50
5711;DHT22;61291;52.524;13.422;2023-03-18T13:05:27;19.90;95.70
5711;DHT22;61291;52.524;13.422;2023-03-18T13:08:04;20.10;95.70
5711;DHT22;61291;52.524;13.422;2023-03-18T13:10:39;20.40;95.80
5711;DHT22;61291;52.524;13.422;2023-03-18T13:13:07;20.70;95.70
5711;DHT22;61291;52.524;13.422;2023-03-18T13:15:48;21.00;95.70
5711;DHT22;61291;52.524;13.422;2023-03-18T13:18:25;21.00;95.50
5711;DHT22;61291;52.524;13.422;2023-03-18T13:20:56;20.80;95.50
5711;DHT22;61291;52.524;13.422;2023-03-18T13:23:50;20.50;95.50
5711;DHT22;61291;52.524;13.422;2023-03-18T13:26:27;20.20;95.70
5711;DHT22;61291;52.524;13.422;2023-03-18T13:29:07;20.00;95.80
5711;DHT22;61291;52.524;13.422;2023-03-18T13:32:00;19.90;96.00
5711;DHT22;61291;52.524;13.422;2023-03-18T13:41:02;19.60;96.30
5711;DHT22;61291;52.524;13.422;2023-03-18T13:43:32;19.50;96.30
5711;DHT22;61291;52.524;13.422;2023-03-18T13:45:58;19.40;96.40
5711;DHT22;61291;52.524;13.422;2023-03-18T13:48:33;19.40;96.50
5711;DHT22;61291;52.524;13.422;2023-03-18T13:51:17;19.30;96.80
5711;DHT22;61291;52.524;13.422;2023-03-18T13:53:45;19.20;96.80
5711;DHT22;61291;52.524;13.422;2023-03-18T13:56:27;19.10;96.90
5711;DHT22;61291;52.524;13.422;2023-03-18T13:58:53;19.10;97.00
5711;DHT22;61291;52.524;13.422;2023-03-18T14:01:33;19.00;97.00
5711;DHT22;61291;52.524;13.422;2023-03-18T14:04:02;19.00;97.20
5711;DHT22;61291;52.524;13.422;2023-03-18T14:06:53;18.90;97.20
5711;DHT22;61291;52.524;13.422;2023-03-18T14:11:54;18.90;97.50
5711;DHT22;61291;52.524;13.422;2023-03-18T14:19:54;18.90;97.70
5711;DHT22;61291;52.524;13.422;2023-03-18T14:22:30;18.90;98.00
5711;DHT22;61291;52.524;13.422;2023-03-18T14:27:58;18.80;97.80
5711;DHT22;61291;52.524;13.422;2023-03-18T14:35:57;18.80;98.00
5711;DHT22;61291;52.524;13.422;2023-03-18T14:38:26;18.70;98.00
5711;DHT22;61291;52.524;13.422;2023-03-18T14:40:55;18.70;98.00
5711;DHT22;61291;52.524;13.422;2023-03-18T14:43:34;18.70;98.20
5711;DHT22;61291;52.524;13.422;2023-03-18T14:46:03;18.60;98.20
5711;DHT22;61291;52.524;13.422;2023-03-18T14:48:33;18.60;98.30
5711;DHT22;61291;52.524;13.422;2023-03-18T14:51:02;18.50;98.30
5711;DHT22;61291;52.524;13.422;2023-03-18T14:53:38;18.40;98.40
5711;DHT22;61291;52.524;13.422;2023-03-18T14:56:16;18.50;98.50
5711;DHT22;61291;52.524;13.422;2023-03-18T14:58:44;18.60;98.60
5711;DHT22;61291;52.524;13.422;2023-03-18T15:01:12;18.60;98.60
5711;DHT22;61291;52.524;13.422;2023-03-18T15:03:43;18.60;98.50
5711;DHT22;61291;52.524;13.422;2023-03-18T15:06:19;18.60;98.60
5711;DHT22;61291;52.524;13.422;2023-03-18T15:08:51;18.40;98.60
5711;DHT22;61291;52.524;13.422;2023-03-18T15:11:19;18.30;98.70
5711;DHT22;61291;52.524;13.422;2023-03-18T15:13:45;18.40;98.80
5711;DHT22;61291;52.524;13.422;2023-03-18T15:16:12;18.50;98.90
5711;DHT22;61291;52.524;13.422;2023-03-18T15:18:38;18.50;99.00
5711;DHT22;61291;52.524;13.422;2023-03-18T15:21:23;18.40;99.10
5711;DHT22;61291;52.524;13.422;2023-03-18T15:23:52;18.40;99.20
5711;DHT22;61291;52.524;13.422;2023-03-18T15:26:29;18.20;99.20
5711;DHT22;61291;52.524;13.422;2023-03-18T15:28:57;18.10;99.30
5711;DHT22;61291;52.524;13.422;2023-03-18T15:31:29;17.90;99.40
5711;DHT22;61291;52.524;13.422;2023-03-18T15:34:12;17.70;99.60
5711;DHT22;61291;52.524;13.422;2023-03-18T15:36:52;17.60;99.90
5711;DHT22;61291;52.524;13.422;2023-03-18T15:39:33;17.60;99.90
5711;DHT22;61291;52.524;13.422;2023-03-18T15:42:01;17.40;99.90
5711;DHT22;61291;52.524;13.422;2023-03-18T15:44:39;17.40;99.90
5711;DHT22;61291;52.524;13.422;2023-03-18T15:49:57;17.40;99.90
5711;DHT22;61291;52.524;13.422;2023-03-18T15:52:34;17.50;99.90
5711;DHT22;61291;52.524;13.422;2023-03-18T15:55:32;17.50;99.90
5711;DHT22;61291;52.524;13.422;2023-03-18T15:58:04;17.60;99.90
5711;DHT22;61291;52.524;13.422;2023-03-18T16:00:31;17.60;99.90
5711;DHT22;61291;52.524;13.422;2023-03-18T16:02:58;17.60;99.90
5711;DHT22;61291;52.524;13.422;2023-03-18T16:05:25;17.60;99.90
5711;DHT22;61291;52.524;13.422;2023-03-18T16:07:53;17.60;99.90
5711;DHT22;61291;52.524;13.422;2023-03-18T16:10:20;17.60;99.90
5711;DHT22;61291;52.524;13.422;2023-03-18T16:12:50;17.70;99.90
5711;DHT22;61291;52.524;13.422;2023-03-18T16:15:18;17.60;99.90
5711;DHT22;61291;52.524;13.422;2023-03-18T16:17:50;17.70;99.90
5711;DHT22;61291;52.524;13.422;2023-03-18T16:20:21;17.70;99.90
5711;DHT22;61291;52.524;13.422;2023-03-18T16:22:47;17.70;99.90
5711;DHT22;61291;52.524;13.422;2023-03-18T16:25:13;17.80;99.90
5711;DHT22;61291;52.524;13.422;2023-03-18T16:27:40;17.70;99.90
5711;DHT22;61291;52.524;13.422;2023-03-18T16:32:44;17.60;99.90
5711;DHT22;61291;52.524;13.422;2023-03-18T16:35:14;17.60;99.90
5711;DHT22;61291;52.524;13.422;2023-03-18T16:37:42;17.60;99.90
5711;DHT22;61291;52.524;13.422;2023-03-18T16:40:27;17.50;99.90
5711;DHT22;61291;52.524;13.422;2023-03-18T16:42:53;17.50;99.90
5711;DHT22;61291;52.524;13.422;2023-03-18T16:45:24;17.30;99.90
5711;DHT22;61291;52.524;13.422;2023-03-18T16:47:54;17.30;99.90
5711;DHT22;61291;52.524;13.422;2023-03-18T16:50:23;17.20;99.90
5711;DHT22;61291;52.524;13.422;2023-03-18T16:52:51;17.20;99.90
5711;DHT22;61291;52.524;13.422;2023-03-18T16:55:18;17.10;99.90
5711;DHT22;61291;52.524;13.422;2023-03-18T16:57:50;17.00;99.90